Acorn, Kentucky
Current Conditions -  °F | °C
As of 2:35 PM on Thursday 27 Nov 2014 (Local Time) from KSME Reporting Station
Overcast Overcast  
Wind Chill: -4°   Ceiling: 1600
Heat Index:   Visibility: 10mi
Dew Point: -3°   Wind: 8mph
Humidity: 80%   Direction: 300°WNW
Pressure: 30.35"   Gusts: NA
Location:  37.0813°N, 84.4741°W
Report Text: KSME 271935Z AUTO 30007KT 10SM BKN016 OVC021 00/M03 A3035 RMK AO2
Loading
Personal Weather Stations






























Interactive Weather Map New forecast layout! Learn more

10-Day Weather Forecast

Advertisements
Track Severe Weather on mobile